createdAt,value
2023-04-18T00:03:05.896Z,10.11
2023-04-18T00:06:13.224Z,10.09
2023-04-18T00:09:24.761Z,10.13
2023-04-18T00:12:30.362Z,10.12
2023-04-18T00:15:37.298Z,10.17
2023-04-18T00:18:43.439Z,10.19
2023-04-18T00:21:49.977Z,10.20
2023-04-18T00:24:58.174Z,10.20
2023-04-18T00:28:04.522Z,10.14
2023-04-18T00:31:10.155Z,10.15
2023-04-18T00:34:16.541Z,10.15
2023-04-18T00:37:24.529Z,10.14
2023-04-18T00:40:34.043Z,10.14
2023-04-18T00:43:39.756Z,10.16
2023-04-18T00:46:46.505Z,10.11
2023-04-18T00:49:52.657Z,10.07
2023-04-18T00:53:00.012Z,10.06
2023-04-18T00:56:09.107Z,10.10
2023-04-18T00:59:17.267Z,10.11
2023-04-18T01:02:26.455Z,10.11
2023-04-18T01:05:33.280Z,10.08
2023-04-18T01:08:40.232Z,10.10
2023-04-18T01:11:49.347Z,10.04
2023-04-18T01:14:55.150Z,10.02
2023-04-18T01:18:03.761Z,9.98
2023-04-18T01:21:10.172Z,9.96
2023-04-18T01:24:21.811Z,10.03
2023-04-18T01:27:27.517Z,9.97
2023-04-18T01:30:33.957Z,9.97
2023-04-18T01:33:39.701Z,9.92
2023-04-18T01:36:48.571Z,9.88
2023-04-18T01:39:58.465Z,9.85
2023-04-18T01:43:04.838Z,9.88
2023-04-18T01:46:11.670Z,9.87
2023-04-18T01:49:19.146Z,9.91
2023-04-18T01:52:24.734Z,9.91
2023-04-18T01:55:33.724Z,9.93
2023-04-18T01:58:39.630Z,9.91
2023-04-18T02:01:46.253Z,9.91
2023-04-18T02:04:52.130Z,9.89
2023-04-18T02:07:59.444Z,9.91
2023-04-18T02:11:08.498Z,9.89
2023-04-18T02:14:15.167Z,9.88
2023-04-18T02:17:21.693Z,9.86
2023-04-18T02:20:28.876Z,9.85
2023-04-18T02:23:34.560Z,9.72
2023-04-18T02:26:43.641Z,9.78
2023-04-18T02:29:49.288Z,9.78
2023-04-18T02:32:57.282Z,9.79
2023-04-18T02:36:02.941Z,9.78
2023-04-18T02:39:09.281Z,9.69
2023-04-18T02:42:17.576Z,9.70
2023-04-18T02:45:24.254Z,9.70
2023-04-18T02:48:29.987Z,9.66
2023-04-18T02:51:36.774Z,9.67
2023-04-18T02:54:42.652Z,9.65
2023-04-18T02:57:59.222Z,9.65
2023-04-18T03:01:37.871Z,9.63
2023-04-18T03:04:48.643Z,9.70
2023-04-18T03:07:54.411Z,9.69
2023-04-18T03:11:01.085Z,9.74
2023-04-18T03:14:11.776Z,9.74
2023-04-18T03:17:30.196Z,9.84
2023-04-18T03:20:37.809Z,9.88
2023-04-18T03:23:46.687Z,9.91
2023-04-18T03:26:53.224Z,9.94
2023-04-18T03:30:07.436Z,9.97
2023-04-18T03:33:15.009Z,9.94
2023-04-18T03:36:25.494Z,9.92
2023-04-18T03:39:32.887Z,9.89
2023-04-18T03:42:42.412Z,9.88
2023-04-18T03:45:52.580Z,9.88
2023-04-18T03:48:59.564Z,9.92
2023-04-18T03:52:05.634Z,9.95
2023-04-18T03:55:13.642Z,9.95
2023-04-18T03:58:23.930Z,9.92
2023-04-18T04:01:34.817Z,9.91
2023-04-18T04:04:41.226Z,9.94
2023-04-18T04:07:49.795Z,9.93
2023-04-18T04:10:56.520Z,9.91
2023-04-18T04:14:03.855Z,9.92
2023-04-18T04:17:19.841Z,9.87
2023-04-18T04:20:27.054Z,9.86
2023-04-18T04:23:46.544Z,9.86
2023-04-18T04:27:04.103Z,9.83
2023-04-18T04:30:14.022Z,9.87
2023-04-18T04:33:25.740Z,9.90
2023-04-18T04:36:35.075Z,9.95
2023-04-18T04:39:43.622Z,9.95
2023-04-18T04:43:20.842Z,10.02
2023-04-18T04:46:29.606Z,10.05
2023-04-18T04:49:39.326Z,10.11
2023-04-18T04:52:46.267Z,10.16
2023-04-18T04:55:53.676Z,10.25
2023-04-18T04:59:02.152Z,10.26
2023-04-18T05:02:15.119Z,10.28
2023-04-18T05:05:24.288Z,10.37
2023-04-18T05:08:30.162Z,10.44
2023-04-18T05:11:36.497Z,10.39
2023-04-18T05:14:42.099Z,10.43
2023-04-18T05:17:48.541Z,10.43
2023-04-18T05:20:57.095Z,10.49
2023-04-18T05:24:03.443Z,10.51
2023-04-18T05:27:09.995Z,10.61
2023-04-18T05:30:16.852Z,10.65
2023-04-18T05:33:22.524Z,10.77
2023-04-18T05:36:32.015Z,10.85
2023-04-18T05:39:37.677Z,10.94
2023-04-18T05:42:44.050Z,11.04
2023-04-18T05:45:50.768Z,11.17
2023-04-18T05:48:57.168Z,11.17
2023-04-18T05:52:05.484Z,11.16
2023-04-18T05:55:12.864Z,11.25
2023-04-18T05:58:18.631Z,11.33
2023-04-18T06:01:25.186Z,11.53
2023-04-18T06:04:30.991Z,11.71
2023-04-18T06:07:40.229Z,11.74
2023-04-18T06:10:46.126Z,11.78
2023-04-18T06:13:52.648Z,11.82
2023-04-18T06:16:58.459Z,11.81
2023-04-18T06:20:06.437Z,11.77
2023-04-18T06:23:14.807Z,11.87
2023-04-18T06:26:21.374Z,11.96
2023-04-18T06:29:30.533Z,12.03
2023-04-18T06:32:37.226Z,11.97
2023-04-18T06:35:43.236Z,11.97
2023-04-18T06:38:52.586Z,11.96
2023-04-18T06:41:58.369Z,12.03
2023-04-18T06:45:10.995Z,12.15
2023-04-18T06:48:16.974Z,12.26
2023-04-18T06:51:23.409Z,12.32
2023-04-18T06:54:31.733Z,12.45
2023-04-18T06:57:38.379Z,12.55
2023-04-18T07:00:44.396Z,12.56
2023-04-18T07:03:51.206Z,12.80
2023-04-18T07:06:57.133Z,13.07
2023-04-18T07:10:06.446Z,13.38
2023-04-18T07:13:12.151Z,13.76
2023-04-18T07:16:18.707Z,14.18
2023-04-18T07:19:24.277Z,14.68
2023-04-18T07:22:30.603Z,15.27
2023-04-18T07:25:38.980Z,15.92
2023-04-18T07:28:45.394Z,16.51
2023-04-18T07:31:51.781Z,17.26
2023-04-18T07:34:59.365Z,17.54
2023-04-18T07:38:05.238Z,17.85
2023-04-18T07:41:14.177Z,17.98
2023-04-18T07:44:21.718Z,18.30
2023-04-18T07:47:31.878Z,18.52
2023-04-18T07:50:38.379Z,18.52
2023-04-18T07:53:44.868Z,18.36
2023-04-18T07:56:53.301Z,18.32
2023-04-18T07:59:59.744Z,18.55
2023-04-18T08:03:07.887Z,18.70
2023-04-18T08:06:14.443Z,18.92
2023-04-18T08:09:20.818Z,18.83
2023-04-18T08:12:29.879Z,18.76
2023-04-18T08:15:35.514Z,18.59
2023-04-18T08:18:41.925Z,18.39
2023-04-18T08:21:47.548Z,18.57
2023-04-18T08:25:04.216Z,18.45
2023-04-18T08:28:13.916Z,18.43
2023-04-18T08:31:20.448Z,18.48
2023-04-18T08:34:26.626Z,18.68
2023-04-18T08:37:35.485Z,18.57
2023-04-18T08:40:41.621Z,18.47
2023-04-18T08:43:55.924Z,18.23
2023-04-18T08:47:04.178Z,18.43
2023-04-18T08:50:13.051Z,18.69
2023-04-18T08:53:19.562Z,18.99
2023-04-18T08:56:26.232Z,19.21
2023-04-18T08:59:35.865Z,19.41
2023-04-18T09:02:47.247Z,19.29
2023-04-18T09:06:12.711Z,19.08
2023-04-18T09:09:19.879Z,19.57
2023-04-18T09:12:27.535Z,19.72
2023-04-18T09:15:36.862Z,19.65
2023-04-18T09:18:42.560Z,19.53
2023-04-18T09:21:49.166Z,19.24
2023-04-18T09:24:58.379Z,19.18
2023-04-18T09:28:07.094Z,19.20
2023-04-18T09:31:17.710Z,19.21
2023-04-18T09:34:26.649Z,18.97
2023-04-18T09:37:32.865Z,18.70
2023-04-18T09:40:39.636Z,18.66
2023-04-18T09:43:46.396Z,18.74
2023-04-18T09:46:55.641Z,18.96
2023-04-18T09:50:01.456Z,19.27
2023-04-18T09:53:11.547Z,19.71
2023-04-18T09:56:28.465Z,20.37
2023-04-18T10:03:08.526Z,21.45
2023-04-18T10:06:18.957Z,21.83
2023-04-18T10:09:26.527Z,22.28
2023-04-18T10:12:33.217Z,22.72
2023-04-18T10:15:41.763Z,22.72
2023-04-18T10:18:54.436Z,22.76
2023-04-18T10:22:03.971Z,23.00
2023-04-18T10:25:11.466Z,23.48
2023-04-18T10:28:17.323Z,23.99
2023-04-18T10:31:26.106Z,23.94
2023-04-18T10:34:34.602Z,23.77
2023-04-18T10:37:54.390Z,23.79
2023-04-18T10:41:23.000Z,23.81
2023-04-18T10:44:29.430Z,24.26
2023-04-18T10:47:35.260Z,24.31
2023-04-18T10:51:16.118Z,24.40
2023-04-18T10:54:33.087Z,24.65
2023-04-18T10:57:45.988Z,25.06
2023-04-18T11:00:56.563Z,25.28
2023-04-18T11:04:03.313Z,25.45
2023-04-18T11:07:11.744Z,25.43
2023-04-18T11:10:22.910Z,25.60
2023-04-18T11:13:29.036Z,25.57
2023-04-18T11:16:37.730Z,25.71
2023-04-18T11:19:43.892Z,25.83
2023-04-18T11:22:55.284Z,25.94
2023-04-18T11:26:01.975Z,25.79
2023-04-18T11:29:09.606Z,25.76
2023-04-18T11:32:15.609Z,25.26
2023-04-18T11:35:23.015Z,25.37
2023-04-18T11:38:34.817Z,25.42
2023-04-18T11:41:48.511Z,25.63
2023-04-18T11:44:54.715Z,25.51
2023-04-18T11:48:03.507Z,25.82
2023-04-18T11:51:10.871Z,26.15
2023-04-18T11:54:45.660Z,26.47
2023-04-18T11:57:56.989Z,26.41
2023-04-18T12:01:18.011Z,26.09
2023-04-18T12:04:23.808Z,26.01
2023-04-18T12:07:39.788Z,26.16
2023-04-18T12:10:55.129Z,26.33
2023-04-18T12:14:03.522Z,26.44
2023-04-18T12:17:09.784Z,26.12
2023-04-18T12:20:18.831Z,25.89
2023-04-18T12:23:37.407Z,25.62
2023-04-18T12:26:52.752Z,25.64
2023-04-18T12:29:58.374Z,25.90
2023-04-18T12:33:06.997Z,26.19
2023-04-18T12:36:13.228Z,26.65
2023-04-18T12:39:19.684Z,27.41
2023-04-18T12:42:30.868Z,27.78
2023-04-18T12:45:37.445Z,27.60
2023-04-18T12:48:43.204Z,27.44
2023-04-18T12:51:49.724Z,27.44
2023-04-18T12:54:56.544Z,27.05
2023-04-18T12:58:05.783Z,26.40
2023-04-18T13:01:11.457Z,25.87
2023-04-18T13:04:18.122Z,25.36
2023-04-18T13:07:24.034Z,25.01
2023-04-18T13:10:30.474Z,24.49
2023-04-18T13:13:39.179Z,24.31
2023-04-18T13:16:45.750Z,24.32
2023-04-18T13:19:52.020Z,24.16
2023-04-18T13:22:58.481Z,24.11
2023-04-18T13:26:04.214Z,23.95
2023-04-18T13:29:13.570Z,23.72
2023-04-18T13:32:19.531Z,23.43
2023-04-18T13:35:40.098Z,23.61
2023-04-18T13:38:46.029Z,23.51
2023-04-18T13:41:57.327Z,23.44
2023-04-18T13:45:06.080Z,23.43
2023-04-18T13:48:14.453Z,23.50
2023-04-18T13:51:21.961Z,23.33
2023-04-18T13:54:29.772Z,23.33
2023-04-18T13:57:37.521Z,23.28
2023-04-18T14:00:46.624Z,23.15
2023-04-18T14:03:52.345Z,23.15
2023-04-18T14:06:58.934Z,23.12
2023-04-18T14:10:04.470Z,23.06
2023-04-18T14:13:10.887Z,22.91
2023-04-18T14:16:19.441Z,22.60
2023-04-18T14:19:25.821Z,22.36
2023-04-18T14:22:31.506Z,21.98
2023-04-18T14:25:38.245Z,21.64
2023-04-18T14:28:43.984Z,21.49
2023-04-18T14:31:53.721Z,21.51
2023-04-18T14:34:59.384Z,21.34
2023-04-18T14:38:05.934Z,21.13
2023-04-18T14:41:13.367Z,20.93
2023-04-18T14:44:20.223Z,20.78
2023-04-18T14:47:32.034Z,20.59
2023-04-18T14:50:39.715Z,20.54
2023-04-18T14:53:45.893Z,20.48
2023-04-18T14:56:53.012Z,20.47
2023-04-18T14:59:58.767Z,20.49
2023-04-18T15:03:11.161Z,20.50
2023-04-18T15:06:20.760Z,20.59
2023-04-18T15:09:27.393Z,20.72
2023-04-18T15:12:33.934Z,20.83
2023-04-18T15:15:41.256Z,20.84
2023-04-18T15:18:49.542Z,20.78
2023-04-18T15:21:55.883Z,20.72
2023-04-18T15:25:01.554Z,20.62
2023-04-18T15:28:08.398Z,20.66
2023-04-18T15:31:14.582Z,20.71
2023-04-18T15:34:23.546Z,20.65
2023-04-18T15:37:29.259Z,20.50
2023-04-18T15:40:36.471Z,20.24
2023-04-18T15:43:42.784Z,19.96
2023-04-18T15:46:49.287Z,19.83
2023-04-18T15:49:57.582Z,19.58
2023-04-18T15:53:04.702Z,19.36
2023-04-18T15:56:10.476Z,19.23
2023-04-18T15:59:17.192Z,18.94
2023-04-18T16:02:22.818Z,18.81
2023-04-18T16:05:31.974Z,18.67
2023-04-18T16:08:37.740Z,18.56
2023-04-18T16:11:44.204Z,18.43
2023-04-18T16:14:49.805Z,18.37
2023-04-18T16:17:56.567Z,18.08
2023-04-18T16:21:05.252Z,17.90
2023-04-18T16:24:12.612Z,17.75
2023-04-18T16:27:18.448Z,17.71
2023-04-18T16:30:24.921Z,17.60
2023-04-18T16:33:30.739Z,17.46
2023-04-18T16:36:39.766Z,17.46
2023-04-18T16:39:45.562Z,17.52
2023-04-18T16:42:53.056Z,17.48
2023-04-18T16:46:00.470Z,17.40
2023-04-18T16:49:06.831Z,17.20
2023-04-18T16:52:16.773Z,17.23
2023-04-18T16:55:23.173Z,17.23
2023-04-18T16:58:28.842Z,17.14
2023-04-18T17:01:35.306Z,16.95
2023-04-18T17:04:42.422Z,16.86
2023-04-18T17:07:51.892Z,16.83
2023-04-18T17:10:59.596Z,16.75
2023-04-18T17:14:05.908Z,16.50
2023-04-18T17:17:11.601Z,16.42
2023-04-18T17:20:19.381Z,16.33
2023-04-18T17:23:27.760Z,16.23
2023-04-18T17:26:35.325Z,16.13
2023-04-18T17:29:41.156Z,16.20
2023-04-18T17:32:49.352Z,16.04
2023-04-18T17:35:55.130Z,16.06
2023-04-18T17:39:06.732Z,16.02
2023-04-18T17:42:12.578Z,15.96
2023-04-18T17:45:20.606Z,15.92
2023-04-18T17:48:29.181Z,15.73
2023-04-18T17:51:36.166Z,15.61
2023-04-18T17:54:44.288Z,15.46
2023-04-18T17:57:50.972Z,15.32
2023-04-18T18:00:56.928Z,15.18
2023-04-18T18:04:04.003Z,15.12
2023-04-18T18:07:09.816Z,14.97
2023-04-18T18:10:23.406Z,14.91
2023-04-18T18:13:29.303Z,14.97
2023-04-18T18:16:35.788Z,15.04
2023-04-18T18:19:41.499Z,15.05
2023-04-18T18:22:48.155Z,15.02
2023-04-18T18:25:56.519Z,14.90
2023-04-18T18:29:09.320Z,14.94
2023-04-18T18:32:15.020Z,14.94
2023-04-18T18:35:21.809Z,14.98
2023-04-18T18:38:27.453Z,15.04
2023-04-18T18:41:36.520Z,15.02
2023-04-18T18:44:42.176Z,14.96
2023-04-18T18:47:49.079Z,14.90
2023-04-18T18:50:56.687Z,14.77
2023-04-18T18:54:03.117Z,14.71
2023-04-18T18:57:11.448Z,14.67
2023-04-18T19:00:18.450Z,14.57
2023-04-18T19:03:24.288Z,14.48
2023-04-18T19:06:31.063Z,14.35
2023-04-18T19:09:38.801Z,14.43
2023-04-18T19:12:47.863Z,14.47
2023-04-18T19:15:54.220Z,14.50
2023-04-18T19:19:01.032Z,14.59
2023-04-18T19:22:06.993Z,14.66
2023-04-18T19:25:14.879Z,14.50
2023-04-18T19:28:23.220Z,14.62
2023-04-18T19:31:29.914Z,14.56
2023-04-18T19:34:36.365Z,14.53
2023-04-18T19:37:42.886Z,14.43
2023-04-18T19:40:49.115Z,14.43
2023-04-18T19:43:58.152Z,14.45
2023-04-18T19:47:04.432Z,14.31
2023-04-18T19:50:12.718Z,14.23
2023-04-18T19:53:19.113Z,14.28
2023-04-18T19:56:25.593Z,14.31
2023-04-18T19:59:33.737Z,14.22
2023-04-18T20:02:40.592Z,14.11
2023-04-18T20:05:46.330Z,13.94
2023-04-18T20:08:53.671Z,13.84
2023-04-18T20:12:00.740Z,13.87
2023-04-18T20:15:11.771Z,13.86
2023-04-18T20:18:17.407Z,13.95
2023-04-18T20:21:23.898Z,14.00
2023-04-18T20:24:30.309Z,14.04
2023-04-18T20:27:36.827Z,14.09
2023-04-18T20:30:45.929Z,14.07
2023-04-18T20:33:52.341Z,14.16
2023-04-18T20:36:59.013Z,14.26
2023-04-18T20:40:10.453Z,14.33
2023-04-18T20:43:17.622Z,14.17
2023-04-18T20:46:26.707Z,14.10
2023-04-18T20:49:34.339Z,14.12
2023-04-18T20:52:43.082Z,14.00
2023-04-18T20:55:48.681Z,13.86
2023-04-18T20:58:55.122Z,13.87
2023-04-18T21:02:03.738Z,13.74
2023-04-18T21:05:11.507Z,13.72
2023-04-18T21:08:17.309Z,13.75
2023-04-18T21:11:23.815Z,13.72
2023-04-18T21:14:29.425Z,13.73
2023-04-18T21:17:38.496Z,13.87
2023-04-18T21:20:44.349Z,13.92
2023-04-18T21:23:50.834Z,13.87
2023-04-18T21:26:58.013Z,13.85
2023-04-18T21:30:05.171Z,13.77
2023-04-18T21:33:13.512Z,13.59
2023-04-18T21:36:19.943Z,13.51
2023-04-18T21:39:25.648Z,13.47
2023-04-18T21:42:32.063Z,13.55
2023-04-18T21:45:39.773Z,13.60
2023-04-18T21:48:51.293Z,13.63
2023-04-18T21:51:57.814Z,13.65
2023-04-18T21:55:05.160Z,13.69
2023-04-18T21:58:10.789Z,13.74
2023-04-18T22:01:17.213Z,13.76
2023-04-18T22:04:26.765Z,13.80
2023-04-18T22:07:34.237Z,13.86
2023-04-18T22:10:42.455Z,13.82
2023-04-18T22:13:50.301Z,13.82
2023-04-18T22:16:56.019Z,13.85
2023-04-18T22:20:05.982Z,13.85
2023-04-18T22:23:12.299Z,13.88
2023-04-18T22:26:18.692Z,13.86
2023-04-18T22:29:25.713Z,13.93
2023-04-18T22:32:32.139Z,13.99
2023-04-18T22:35:42.529Z,14.00
2023-04-18T22:38:56.686Z,13.97
2023-04-18T22:42:02.912Z,13.98
2023-04-18T22:45:12.933Z,14.01
2023-04-18T22:48:19.097Z,14.00
2023-04-18T22:51:28.970Z,13.97
2023-04-18T22:54:41.468Z,14.00
2023-04-18T22:57:47.838Z,14.02
2023-04-18T23:00:53.771Z,14.03
2023-04-18T23:04:00.542Z,14.01
2023-04-18T23:07:09.091Z,14.00
2023-04-18T23:10:15.591Z,13.91
2023-04-18T23:13:21.400Z,13.86
2023-04-18T23:16:28.348Z,13.79
2023-04-18T23:19:34.062Z,13.74
2023-04-18T23:22:43.409Z,13.70
2023-04-18T23:25:48.993Z,13.68
2023-04-18T23:28:55.665Z,13.64
2023-04-18T23:32:01.323Z,13.62
2023-04-18T23:35:09.261Z,13.68
2023-04-18T23:38:17.440Z,13.70
2023-04-18T23:41:23.935Z,13.76
2023-04-18T23:44:29.610Z,13.79
2023-04-18T23:47:36.037Z,13.82
2023-04-18T23:50:48.893Z,13.79
2023-04-18T23:53:58.013Z,13.66
2023-04-18T23:57:06.521Z,13.51
